Time;durP1;ratioP1;P1;durP2;ratioP2;P2;SDS_P1;SDS_P2;PMS_P1;PMS_P2;Temp;Humidity;BMP_temperature;BMP_pressure;BME280_temperature;BME280_humidity;BME280_pressure;Samples;Min_cycle;Max_cycle;Signal;HPM_P1;HPM_P2
2022/03/04 00:02:17;;;;;;;79.15;13.93;;;2.20;42.10;;;;;;4982102;28;20680;-87
2022/03/04 00:04:42;;;;;;;80.50;14.13;;;2.20;41.70;;;;;;4981099;28;20242;-87
2022/03/04 00:07:08;;;;;;;77.20;15.07;;;2.10;44.10;;;;;;4979828;28;20253;-87
2022/03/04 00:09:37;;;;;;;83.70;15.90;;;2.10;47.20;;;;;;4981402;28;20631;-87
2022/03/04 00:12:07;;;;;;;80.22;14.10;;;2.10;47.30;;;;;;4982932;28;20210;-86
2022/03/04 00:14:33;;;;;;;79.35;13.93;;;2.00;48.70;;;;;;4981844;28;20159;-87
2022/03/04 00:17:01;;;;;;;79.45;14.20;;;2.10;45.00;;;;;;4980993;28;20179;-87
2022/03/04 00:19:29;;;;;;;80.25;14.13;;;2.10;46.70;;;;;;4981060;28;20171;-87
2022/03/04 00:21:57;;;;;;;80.30;12.95;;;2.10;46.80;;;;;;4981714;28;20171;-87
2022/03/04 00:24:23;;;;;;;80.28;15.00;;;2.00;46.90;;;;;;4980764;28;20167;-87
2022/03/04 00:26:50;;;;;;;80.17;13.07;;;2.00;47.80;;;;;;4980692;28;20190;-87
2022/03/04 00:29:18;;;;;;;77.35;13.43;;;2.10;48.20;;;;;;4980727;28;20403;-87
2022/03/04 00:31:46;;;;;;;76.45;13.82;;;2.00;48.50;;;;;;4980581;28;20166;-87
2022/03/04 00:34:12;;;;;;;77.93;14.00;;;2.10;46.70;;;;;;4979874;28;20167;-87
2022/03/04 00:36:39;;;;;;;76.53;13.53;;;2.00;48.50;;;;;;4981052;28;20190;-87
2022/03/04 00:39:16;;;;;;;86.63;15.27;;;2.00;46.70;;;;;;4981408;28;20651;-87
2022/03/04 00:41:42;;;;;;;77.28;13.10;;;2.10;46.90;;;;;;4981634;28;20202;-87
2022/03/04 00:44:08;;;;;;;80.85;14.45;;;2.10;46.30;;;;;;4979961;28;20164;-87
2022/03/04 00:46:43;;;;;;;79.95;14.57;;;2.10;48.20;;;;;;4982206;28;20626;-87
2022/03/04 00:49:09;;;;;;;81.75;14.18;;;2.10;47.10;;;;;;4980277;28;20159;-87
2022/03/04 00:51:34;;;;;;;80.03;14.40;;;2.00;50.20;;;;;;4981621;28;20190;-87
2022/03/04 00:54:00;;;;;;;73.97;12.10;;;1.90;52.80;;;;;;4980363;28;20171;-87
2022/03/04 00:56:26;;;;;;;82.03;13.33;;;1.90;54.90;;;;;;4981545;28;20321;-87
2022/03/04 00:58:51;;;;;;;83.80;13.73;;;1.90;56.00;;;;;;4981069;28;20171;-87
2022/03/04 01:01:17;;;;;;;81.10;15.17;;;1.90;53.90;;;;;;4980579;28;20225;-87
2022/03/04 01:03:43;;;;;;;80.53;15.23;;;1.90;52.50;;;;;;4979663;28;20201;-87
2022/03/04 01:06:09;;;;;;;81.57;15.13;;;2.00;49.40;;;;;;4980012;28;20846;-87
2022/03/04 01:08:35;;;;;;;86.33;14.63;;;2.00;45.70;;;;;;4980136;28;20406;-86
2022/03/04 01:11:01;;;;;;;79.40;14.20;;;2.10;46.20;;;;;;4981346;28;20255;-87
2022/03/04 01:13:29;;;;;;;80.80;14.67;;;2.10;41.70;;;;;;4981273;28;20202;-87
2022/03/04 01:15:56;;;;;;;77.55;12.95;;;2.20;39.60;;;;;;4979511;28;20430;-87
2022/03/04 01:18:21;;;;;;;77.68;13.82;;;2.10;41.10;;;;;;4980911;28;20163;-87
2022/03/04 01:20:47;;;;;;;83.47;14.40;;;2.10;42.40;;;;;;4981506;28;20559;-87
2022/03/04 01:23:13;;;;;;;81.50;14.57;;;2.10;42.20;;;;;;4981769;28;20167;-87
2022/03/04 01:25:39;;;;;;;86.83;17.27;;;2.10;42.50;;;;;;4980494;28;20498;-86
2022/03/04 01:28:10;;;;;;;84.43;14.60;;;2.10;42.70;;;;;;4982243;28;20159;-87
2022/03/04 01:30:35;;;;;;;80.13;14.10;;;2.20;44.20;;;;;;4980847;28;20215;-87
2022/03/04 01:33:01;;;;;;;80.80;14.80;;;2.20;43.80;;;;;;4981552;28;20176;-87
2022/03/04 01:35:29;;;;;;;81.50;14.43;;;2.20;42.50;;;;;;4981964;28;20534;-87
2022/03/04 01:37:57;;;;;;;79.38;14.27;;;2.20;45.10;;;;;;4982917;28;20242;-87
2022/03/04 01:40:23;;;;;;;77.30;13.75;;;2.20;45.30;;;;;;4981642;28;20238;-87
2022/03/04 01:42:49;;;;;;;78.27;12.80;;;2.10;46.40;;;;;;4982467;28;20243;-87
2022/03/04 01:45:14;;;;;;;91.37;14.53;;;2.00;48.90;;;;;;4982183;28;20803;-87
2022/03/04 01:47:42;;;;;;;77.73;13.50;;;1.80;49.60;;;;;;4981764;28;20887;-87
2022/03/04 01:50:08;;;;;;;80.72;13.85;;;1.80;53.40;;;;;;4981826;28;20218;-87
2022/03/04 01:52:34;;;;;;;89.47;15.85;;;1.80;53.70;;;;;;4980379;28;20238;-87
2022/03/04 01:55:00;;;;;;;82.07;16.10;;;1.90;54.00;;;;;;4981432;28;20654;-87
2022/03/04 01:57:25;;;;;;;79.77;15.37;;;1.90;52.40;;;;;;4980775;28;20191;-87
2022/03/04 01:59:51;;;;;;;81.77;16.87;;;1.90;54.20;;;;;;4980424;28;20597;-87
2022/03/04 02:02:17;;;;;;;82.47;16.70;;;1.80;52.70;;;;;;4981659;28;20199;-87
2022/03/04 02:04:43;;;;;;;81.40;14.70;;;1.80;52.90;;;;;;4982046;28;20274;-87
2022/03/04 02:07:09;;;;;;;83.90;16.80;;;1.80;53.30;;;;;;4980990;28;20210;-88
2022/03/04 02:09:35;;;;;;;79.20;17.83;;;1.70;54.10;;;;;;4980904;28;20270;-87
2022/03/04 02:12:01;;;;;;;82.53;17.80;;;1.70;54.00;;;;;;4982491;28;20171;-87
2022/03/04 02:14:26;;;;;;;86.17;16.30;;;1.80;55.10;;;;;;4980600;28;20490;-87
2022/03/04 02:16:55;;;;;;;79.60;15.17;;;1.90;54.50;;;;;;4980056;28;20195;-88
2022/03/04 02:19:24;;;;;;;82.57;13.90;;;2.00;52.70;;;;;;4981380;28;20531;-87
2022/03/04 02:21:55;;;;;;;77.78;13.65;;;2.00;51.20;;;;;;4981746;28;20182;-87
2022/03/04 02:24:23;;;;;;;78.93;14.10;;;2.10;47.80;;;;;;4981442;28;20158;-87
2022/03/04 02:26:49;;;;;;;79.93;15.73;;;2.10;49.30;;;;;;4979971;28;20602;-87
2022/03/04 02:29:24;;;;;;;86.25;14.90;;;2.00;50.20;;;;;;4979834;28;20246;-87
2022/03/04 02:31:51;;;;;;;80.63;12.70;;;2.00;52.30;;;;;;4981641;28;20221;-87
2022/03/04 02:34:17;;;;;;;84.15;14.15;;;2.00;51.60;;;;;;4980596;28;20167;-87
2022/03/04 02:36:43;;;;;;;81.72;15.02;;;2.00;51.50;;;;;;4981811;28;20536;-87
2022/03/04 02:39:09;;;;;;;82.80;14.82;;;1.90;52.20;;;;;;4981578;28;20167;-87
2022/03/04 02:41:35;;;;;;;80.87;13.80;;;1.90;52.30;;;;;;4979515;28;20267;-87
2022/03/04 02:44:06;;;;;;;80.87;14.03;;;1.90;54.80;;;;;;4980858;28;20414;-87
2022/03/04 02:46:33;;;;;;;82.80;15.00;;;1.80;55.40;;;;;;4981221;28;20650;-87
2022/03/04 02:48:58;;;;;;;81.93;14.88;;;1.80;54.30;;;;;;4979719;28;20171;-87
2022/03/04 02:51:24;;;;;;;83.23;15.93;;;1.70;55.50;;;;;;4980299;28;20182;-87
2022/03/04 02:53:51;;;;;;;82.30;14.60;;;1.70;57.40;;;;;;4979441;28;20167;-87
2022/03/04 02:56:19;;;;;;;81.78;14.90;;;1.70;58.40;;;;;;4979120;28;20487;-87
2022/03/04 02:58:45;;;;;;;79.15;15.25;;;1.60;60.10;;;;;;4979603;28;20543;-87
2022/03/04 03:01:11;;;;;;;79.20;15.40;;;1.50;62.70;;;;;;4980063;28;20195;-87
2022/03/04 03:03:37;;;;;;;80.43;13.87;;;1.50;63.50;;;;;;4980047;28;20501;-87
2022/03/04 03:06:03;;;;;;;91.83;15.03;;;1.50;63.80;;;;;;4979552;28;20602;-87
2022/03/04 03:08:29;;;;;;;80.68;16.15;;;1.50;65.00;;;;;;4979776;28;20595;-87
2022/03/04 03:10:55;;;;;;;85.30;17.43;;;1.50;65.30;;;;;;4979743;28;20174;-87
2022/03/04 03:13:21;;;;;;;78.93;17.10;;;1.40;66.10;;;;;;4978106;28;20407;-87
2022/03/04 03:15:48;;;;;;;84.28;17.00;;;1.40;67.40;;;;;;4978026;28;20201;-86
2022/03/04 03:18:14;;;;;;;83.53;15.23;;;1.40;66.60;;;;;;4977432;28;20178;-87
2022/03/04 03:20:42;;;;;;;77.90;16.27;;;1.30;67.70;;;;;;4979019;28;20198;-87
2022/03/04 03:23:08;;;;;;;80.32;15.73;;;1.20;70.20;;;;;;4979001;28;20168;-87
2022/03/04 03:25:34;;;;;;;83.38;16.95;;;1.20;73.40;;;;;;4977409;28;20283;-87
2022/03/04 03:28:00;;;;;;;81.53;14.40;;;1.20;73.90;;;;;;4978059;28;20596;-87
2022/03/04 03:30:26;;;;;;;86.37;16.17;;;1.10;73.90;;;;;;4978748;28;20506;-87
2022/03/04 03:32:52;;;;;;;81.80;15.73;;;1.10;73.00;;;;;;4978160;28;20402;-87
2022/03/04 03:35:18;;;;;;;80.95;14.70;;;1.20;75.00;;;;;;4978674;28;20167;-87
2022/03/04 03:37:50;;;;;;;92.03;15.70;;;1.10;75.50;;;;;;4976928;28;20182;-87
2022/03/04 03:40:16;;;;;;;84.60;16.13;;;1.00;79.10;;;;;;4977231;28;20445;-87
2022/03/04 03:42:42;;;;;;;82.07;16.33;;;1.00;80.10;;;;;;4977514;28;20175;-87
2022/03/04 03:45:10;;;;;;;82.00;16.27;;;1.00;81.50;;;;;;4976723;28;20167;-87
2022/03/04 03:47:40;;;;;;;83.70;17.17;;;0.90;82.80;;;;;;4975665;28;20218;-87
2022/03/04 03:50:09;;;;;;;82.78;14.80;;;0.90;83.50;;;;;;4977264;28;20255;-87
2022/03/04 03:52:36;;;;;;;85.00;14.88;;;1.00;83.30;;;;;;4976730;28;20175;-87
2022/03/04 03:55:05;;;;;;;79.45;13.45;;;1.00;83.10;;;;;;4976597;28;20195;-87
2022/03/04 03:57:31;;;;;;;83.47;17.25;;;1.00;81.80;;;;;;4975920;28;20262;-87
2022/03/04 03:59:59;;;;;;;82.93;15.07;;;1.00;82.30;;;;;;4975590;28;20205;-87
2022/03/04 04:02:26;;;;;;;84.75;16.85;;;1.00;81.40;;;;;;4975437;28;20167;-87
2022/03/04 04:04:51;;;;;;;83.82;16.55;;;1.10;81.40;;;;;;4975098;28;20187;-87
2022/03/04 04:07:18;;;;;;;87.40;18.67;;;1.10;78.90;;;;;;4974802;28;20226;-87
2022/03/04 04:09:46;;;;;;;80.47;15.75;;;1.00;80.10;;;;;;4974683;28;20426;-87
2022/03/04 04:12:13;;;;;;;85.78;16.83;;;1.00;80.80;;;;;;4975224;28;20211;-87
2022/03/04 04:14:41;;;;;;;82.70;17.73;;;1.00;80.00;;;;;;4975446;28;20182;-87
2022/03/04 04:17:07;;;;;;;82.55;15.65;;;1.00;80.30;;;;;;4975852;28;20191;-87
2022/03/04 04:19:33;;;;;;;86.30;14.90;;;1.00;78.20;;;;;;4975420;28;20170;-87
2022/03/04 04:21:58;;;;;;;82.20;14.57;;;0.90;78.20;;;;;;4977631;28;20553;-87
2022/03/04 04:24:24;;;;;;;84.17;13.57;;;0.90;80.00;;;;;;4978001;28;20174;-87
2022/03/04 04:26:50;;;;;;;87.10;17.60;;;0.90;83.00;;;;;;4978541;28;20257;-87
2022/03/04 04:29:16;;;;;;;82.10;16.47;;;0.80;84.40;;;;;;4977680;28;20407;-87
2022/03/04 04:31:42;;;;;;;83.07;19.03;;;0.80;85.90;;;;;;4977665;28;20799;-87
2022/03/04 04:34:08;;;;;;;83.57;18.52;;;0.80;85.50;;;;;;4978360;28;20657;-87
2022/03/04 04:36:33;;;;;;;86.60;19.93;;;0.80;86.80;;;;;;4977118;28;20242;-88
2022/03/04 04:39:02;;;;;;;89.47;20.00;;;0.80;87.90;;;;;;4976719;28;20834;-88
2022/03/04 04:41:28;;;;;;;83.88;20.25;;;0.80;89.10;;;;;;4977751;28;20191;-88
2022/03/04 04:43:54;;;;;;;87.23;24.20;;;0.70;87.70;;;;;;4977551;28;20226;-87
2022/03/04 04:46:20;;;;;;;84.80;22.63;;;0.70;89.00;;;;;;4976599;28;20439;-87
2022/03/04 04:48:46;;;;;;;85.13;19.60;;;0.60;90.00;;;;;;4976687;28;20171;-87
2022/03/04 04:51:11;;;;;;;87.67;23.87;;;0.60;90.70;;;;;;4976063;28;20421;-88
2022/03/04 04:53:38;;;;;;;92.00;23.67;;;0.60;91.60;;;;;;4976338;28;20419;-88
2022/03/04 04:56:07;;;;;;;89.43;27.65;;;0.60;91.20;;;;;;4976025;28;20571;-88
2022/03/04 04:58:33;;;;;;;88.78;28.67;;;0.60;91.40;;;;;;4977054;28;20524;-88
2022/03/04 05:00:58;;;;;;;86.57;27.43;;;0.60;91.20;;;;;;4975646;28;20199;-88
2022/03/04 05:03:26;;;;;;;96.93;26.27;;;0.50;91.60;;;;;;4976660;28;20422;-88
2022/03/04 05:05:53;;;;;;;86.45;27.77;;;0.50;91.60;;;;;;4976546;28;20207;-87
2022/03/04 05:08:19;;;;;;;90.28;29.13;;;0.50;91.90;;;;;;4976811;28;20197;-88
2022/03/04 05:10:44;;;;;;;84.57;26.90;;;0.50;92.00;;;;;;4976607;28;20687;-88
2022/03/04 05:13:11;;;;;;;87.43;25.90;;;0.50;92.40;;;;;;4976687;28;20177;-88
2022/03/04 05:15:37;;;;;;;92.25;28.80;;;0.50;92.60;;;;;;4975358;28;20426;-88
2022/03/04 05:18:02;;;;;;;88.00;31.00;;;0.50;92.20;;;;;;4975336;28;20714;-88
2022/03/04 05:20:28;;;;;;;84.37;27.87;;;0.40;92.40;;;;;;4976846;28;20533;-88
2022/03/04 05:22:54;;;;;;;85.77;27.00;;;0.40;92.50;;;;;;4975972;28;20607;-88
2022/03/04 05:25:20;;;;;;;89.50;26.70;;;0.40;93.00;;;;;;4976790;28;20406;-88
2022/03/04 05:27:46;;;;;;;83.57;28.97;;;0.30;93.50;;;;;;4975599;28;20198;-88
2022/03/04 05:30:12;;;;;;;88.40;27.33;;;0.30;93.50;;;;;;4976142;28;20406;-88
2022/03/04 05:32:41;;;;;;;86.90;25.30;;;0.40;94.40;;;;;;4975477;28;20175;-88
2022/03/04 05:35:08;;;;;;;92.47;27.35;;;0.30;93.90;;;;;;4975896;28;20721;-88
2022/03/04 05:37:34;;;;;;;85.55;31.42;;;0.30;94.60;;;;;;4976347;28;20262;-88
2022/03/04 05:40:03;;;;;;;87.25;27.92;;;0.40;94.40;;;;;;4976397;28;20198;-87
2022/03/04 05:42:32;;;;;;;87.75;25.38;;;0.50;93.40;;;;;;4976627;28;20167;-88
2022/03/04 05:44:57;;;;;;;89.18;25.92;;;0.50;92.00;;;;;;4976166;28;20163;-88
2022/03/04 05:47:23;;;;;;;86.83;28.30;;;0.50;91.90;;;;;;4975184;28;20595;-88
2022/03/04 05:49:49;;;;;;;87.47;25.30;;;0.50;92.20;;;;;;4975025;28;20282;-88
2022/03/04 05:52:15;;;;;;;82.23;26.77;;;0.50;92.80;;;;;;4975787;28;20410;-88
2022/03/04 05:54:41;;;;;;;91.53;27.07;;;0.50;91.10;;;;;;4974968;28;20415;-88
2022/03/04 05:57:07;;;;;;;87.93;25.83;;;0.50;91.90;;;;;;4974662;28;20197;-88
2022/03/04 05:59:33;;;;;;;90.78;27.50;;;0.50;91.40;;;;;;4974926;28;20171;-88
2022/03/04 06:02:01;;;;;;;88.40;25.20;;;0.50;90.90;;;;;;4975633;28;20164;-88
2022/03/04 06:04:27;;;;;;;83.90;24.80;;;0.50;90.70;;;;;;4976029;28;20537;-88
2022/03/04 06:06:56;;;;;;;89.70;28.20;;;0.50;91.10;;;;;;4975696;28;20246;-88
2022/03/04 06:09:27;;;;;;;86.32;27.17;;;0.50;91.70;;;;;;4974346;28;20221;-88
2022/03/04 06:12:01;;;;;;;89.70;24.08;;;0.50;91.10;;;;;;4976420;28;20206;-88
2022/03/04 06:14:26;;;;;;;87.20;27.35;;;0.50;91.40;;;;;;4975587;28;20160;-88
2022/03/04 06:16:52;;;;;;;97.93;26.80;;;0.40;92.20;;;;;;4975339;28;20591;-88
2022/03/04 06:19:20;;;;;;;85.13;27.97;;;0.40;93.20;;;;;;4974232;28;20175;-88
2022/03/04 06:21:45;;;;;;;89.28;26.55;;;0.40;93.20;;;;;;4974168;28;20690;-88
2022/03/04 06:24:11;;;;;;;91.43;28.17;;;0.30;94.10;;;;;;4975515;28;20167;-88
2022/03/04 06:26:38;;;;;;;88.93;26.57;;;0.30;95.30;;;;;;4974103;28;20195;-88
2022/03/04 06:29:03;;;;;;;85.22;26.40;;;0.30;95.30;;;;;;4974000;28;20547;-88
2022/03/04 06:31:29;;;;;;;90.50;25.57;;;0.30;94.70;;;;;;4975126;28;20170;-88
2022/03/04 06:33:55;;;;;;;84.80;23.50;;;0.30;96.10;;;;;;4974021;28;20442;-88
2022/03/04 06:36:20;;;;;;;90.27;29.07;;;0.20;97.40;;;;;;4975302;28;20187;-88
2022/03/04 06:38:46;;;;;;;90.50;29.27;;;0.20;98.80;;;;;;4974958;28;20180;-88
2022/03/04 06:41:14;;;;;;;91.67;28.67;;;0.20;99.90;;;;;;4974165;28;20281;-88
2022/03/04 06:43:40;;;;;;;92.40;32.60;;;0.20;99.90;;;;;;4974532;28;20407;-88
2022/03/04 06:46:06;;;;;;;96.28;28.83;;;0.30;99.90;;;;;;4974459;28;20193;-87
2022/03/04 06:48:33;;;;;;;96.63;31.52;;;0.40;99.80;;;;;;4975332;28;20578;-87
2022/03/04 06:50:59;;;;;;;91.60;32.55;;;0.40;99.20;;;;;;4975735;28;20175;-88
2022/03/04 06:53:25;;;;;;;91.72;32.20;;;0.40;99.00;;;;;;4974839;28;20222;-88
2022/03/04 06:55:51;;;;;;;90.67;28.90;;;0.50;98.50;;;;;;4975039;28;20665;-88
2022/03/04 06:58:17;;;;;;;91.83;30.37;;;0.50;97.60;;;;;;4975713;28;20418;-88
2022/03/04 07:00:43;;;;;;;89.67;33.27;;;0.50;98.30;;;;;;4975408;28;20453;-88
2022/03/04 07:03:13;;;;;;;94.75;31.92;;;0.60;99.30;;;;;;4975198;28;20438;-88
2022/03/04 07:05:43;;;;;;;94.15;33.90;;;0.60;98.50;;;;;;4974965;28;20277;-88
2022/03/04 07:08:11;;;;;;;92.22;30.88;;;0.70;97.80;;;;;;4975740;28;20183;-88
2022/03/04 07:10:38;;;;;;;87.22;30.23;;;0.70;97.20;;;;;;4973901;28;20262;-88
2022/03/04 07:13:04;;;;;;;92.57;31.27;;;0.70;96.90;;;;;;4978339;28;20171;-87
2022/03/04 07:15:30;;;;;;;94.20;30.50;;;0.80;96.30;;;;;;4977213;28;20242;-87
2022/03/04 07:17:56;;;;;;;95.60;24.70;;;0.80;96.30;;;;;;4979224;28;20205;-87
2022/03/04 07:20:22;;;;;;;88.07;27.17;;;0.90;95.40;;;;;;4978053;28;20454;-87
2022/03/04 07:22:47;;;;;;;91.20;26.90;;;1.00;94.70;;;;;;4973591;28;20194;-88
2022/03/04 07:25:15;;;;;;;90.57;23.63;;;1.00;94.60;;;;;;4973536;28;20179;-88
2022/03/04 07:27:42;;;;;;;90.90;28.70;;;1.10;94.00;;;;;;4974519;28;20543;-86
2022/03/04 07:30:12;;;;;;;96.00;29.83;;;1.00;94.50;;;;;;4979456;28;20249;-87
2022/03/04 07:32:39;;;;;;;94.78;38.13;;;1.00;95.90;;;;;;4975912;28;20175;-87
2022/03/04 07:35:07;;;;;;;96.57;51.58;;;1.00;95.40;;;;;;4977778;28;20164;-88
2022/03/04 07:37:37;;;;;;;96.82;49.40;;;1.10;95.20;;;;;;4977849;28;20245;-88
2022/03/04 07:40:23;;;;;;;101.80;65.53;;;1.20;94.80;;;;;;4976835;28;20190;-88
2022/03/04 07:42:49;;;;;;;105.47;56.50;;;1.30;93.40;;;;;;4978345;28;20186;-88
2022/03/04 07:45:16;;;;;;;106.07;50.58;;;1.40;91.90;;;;;;4977674;28;20167;-87
2022/03/04 07:47:43;;;;;;;100.93;48.65;;;1.50;88.80;;;;;;4982440;28;20508;-87
2022/03/04 07:50:11;;;;;;;94.78;39.08;;;1.50;87.20;;;;;;4988373;28;20236;-87
2022/03/04 07:52:37;;;;;;;94.03;34.97;;;1.60;87.50;;;;;;4985445;28;20163;-87
2022/03/04 07:55:05;;;;;;;87.87;33.17;;;1.70;84.20;;;;;;4991481;28;20179;-87
2022/03/04 07:57:32;;;;;;;93.07;30.25;;;1.80;84.80;;;;;;4988697;28;20477;-88
2022/03/04 07:59:58;;;;;;;91.30;26.88;;;1.80;83.90;;;;;;4985975;28;20194;-88
2022/03/04 08:02:24;;;;;;;93.40;27.45;;;1.90;81.80;;;;;;4983120;28;20171;-87
2022/03/04 08:04:52;;;;;;;93.40;28.53;;;2.00;79.50;;;;;;4988316;28;20167;-87
2022/03/04 08:07:18;;;;;;;87.25;26.17;;;2.00;76.40;;;;;;4988906;28;20217;-87
2022/03/04 08:09:47;;;;;;;96.90;29.00;;;2.10;74.50;;;;;;4986476;28;20175;-88
2022/03/04 08:12:13;;;;;;;86.65;24.98;;;2.10;73.50;;;;;;4987940;28;20164;-87
2022/03/04 08:14:39;;;;;;;91.15;25.48;;;2.20;73.90;;;;;;4987492;28;20160;-88
2022/03/04 08:17:06;;;;;;;93.30;22.95;;;2.40;73.80;;;;;;4989319;28;20214;-88
2022/03/04 08:19:33;;;;;;;91.25;27.27;;;2.40;69.90;;;;;;4989554;28;20171;-87
2022/03/04 08:21:58;;;;;;;94.00;30.25;;;2.50;67.50;;;;;;4986697;28;20191;-87
2022/03/04 08:24:24;;;;;;;90.40;26.63;;;2.60;63.30;;;;;;4986769;28;20653;-88
2022/03/04 08:26:50;;;;;;;90.20;29.17;;;2.60;64.30;;;;;;4984195;28;20219;-87
2022/03/04 08:29:17;;;;;;;93.72;26.33;;;2.70;58.10;;;;;;4984940;28;20273;-87
2022/03/04 08:31:43;;;;;;;90.75;27.33;;;2.80;57.50;;;;;;4986711;28;20632;-87
2022/03/04 08:34:09;;;;;;;86.80;23.63;;;2.80;54.80;;;;;;4987408;28;20175;-87
2022/03/04 08:36:36;;;;;;;84.32;19.02;;;2.90;53.30;;;;;;4988243;28;20214;-87
2022/03/04 08:39:05;;;;;;;91.18;17.35;;;3.00;52.10;;;;;;4989311;28;20174;-88
2022/03/04 08:41:34;;;;;;;89.40;23.40;;;3.00;51.00;;;;;;4988233;28;20186;-87
2022/03/04 08:44:21;;;;;;;88.63;19.98;;;3.10;49.40;;;;;;4994299;28;20195;-87
2022/03/04 08:46:47;;;;;;;87.15;17.55;;;3.20;48.60;;;;;;4995030;28;20187;-88
2022/03/04 08:49:13;;;;;;;90.43;18.23;;;3.20;47.90;;;;;;4993791;28;20197;-87
2022/03/04 08:51:39;;;;;;;88.70;16.08;;;3.30;46.20;;;;;;4994397;28;20167;-88
2022/03/04 08:54:08;;;;;;;83.03;15.87;;;3.20;44.20;;;;;;4993479;28;20206;-88
2022/03/04 08:56:34;;;;;;;84.85;17.25;;;3.30;47.20;;;;;;4993520;28;20195;-87
2022/03/04 08:59:01;;;;;;;92.53;18.33;;;3.30;45.50;;;;;;4994369;28;20167;-87
2022/03/04 09:01:27;;;;;;;87.85;18.55;;;3.30;45.10;;;;;;4994477;28;20211;-87
2022/03/04 09:03:53;;;;;;;86.40;19.10;;;3.40;48.20;;;;;;4995581;28;20167;-87
2022/03/04 09:06:19;;;;;;;83.07;17.90;;;3.50;44.90;;;;;;4990544;28;20213;-88
2022/03/04 09:08:45;;;;;;;88.37;18.10;;;3.60;44.70;;;;;;4992202;28;20643;-87
2022/03/04 09:11:10;;;;;;;87.25;17.55;;;3.70;41.80;;;;;;4991458;28;20179;-87
2022/03/04 09:13:36;;;;;;;88.03;19.37;;;3.80;36.40;;;;;;4991345;28;20242;-88
2022/03/04 09:16:02;;;;;;;86.87;19.77;;;3.80;37.30;;;;;;4990178;28;20202;-88
2022/03/04 09:18:28;;;;;;;88.45;20.73;;;3.80;37.90;;;;;;4990951;28;20483;-87
2022/03/04 09:20:55;;;;;;;101.75;21.63;;;3.90;40.20;;;;;;4989747;28;20246;-87
2022/03/04 09:23:21;;;;;;;94.65;22.38;;;4.00;36.00;;;;;;4989530;28;20527;-87
2022/03/04 09:25:48;;;;;;;95.63;21.95;;;4.10;31.40;;;;;;4990375;28;20190;-87
2022/03/04 09:28:15;;;;;;;87.43;19.75;;;4.10;27.80;;;;;;4989146;28;20257;-87
2022/03/04 09:30:44;;;;;;;94.25;20.30;;;4.20;28.30;;;;;;4991230;28;20163;-87
2022/03/04 09:33:11;;;;;;;82.78;18.02;;;4.30;23.50;;;;;;4988588;28;20174;-87
2022/03/04 09:35:37;;;;;;;88.50;19.70;;;4.40;19.80;;;;;;4990995;28;20270;-88
2022/03/04 09:38:02;;;;;;;89.87;20.37;;;4.40;19.60;;;;;;4994015;28;20171;-87
2022/03/04 09:40:28;;;;;;;90.10;18.33;;;4.50;20.00;;;;;;4993052;28;20477;-87
2022/03/04 09:42:55;;;;;;;94.35;20.92;;;4.60;18.30;;;;;;4994923;28;20163;-87
2022/03/04 09:45:21;;;;;;;87.55;19.40;;;4.70;18.90;;;;;;4993493;28;20191;-87
2022/03/04 09:47:47;;;;;;;92.77;21.20;;;4.80;18.70;;;;;;4992058;28;20223;-87
2022/03/04 09:50:16;;;;;;;89.78;19.95;;;4.80;14.90;;;;;;4990294;28;20415;-87
2022/03/04 09:52:43;;;;;;;89.35;24.23;;;4.90;14.80;;;;;;4993221;28;20156;-87
2022/03/04 09:55:09;;;;;;;90.45;26.33;;;5.00;11.20;;;;;;4990595;28;20171;-87
2022/03/04 09:57:35;;;;;;;93.80;26.00;;;5.10;13.60;;;;;;4992513;28;20187;-87
2022/03/04 10:00:04;;;;;;;91.97;25.20;;;5.20;10.50;;;;;;4990278;28;20335;-87
2022/03/04 10:02:36;;;;;;;94.13;23.02;;;5.30;10.00;;;;;;4991422;28;20242;-87
2022/03/04 10:05:03;;;;;;;94.65;21.13;;;5.30;9.70;;;;;;4992004;28;20159;-87
2022/03/04 10:07:46;;;;;;;92.38;23.58;;;5.40;8.00;;;;;;4990848;28;20291;-87
2022/03/04 10:10:16;;;;;;;98.68;22.15;;;5.50;6.10;;;;;;4991750;28;20182;-87
2022/03/04 10:12:49;;;;;;;95.75;21.48;;;5.60;4.70;;;;;;4991657;28;20175;-87
2022/03/04 10:15:14;;;;;;;96.18;21.38;;;5.80;4.30;;;;;;4991678;28;20171;-87
2022/03/04 10:17:41;;;;;;;96.03;20.57;;;6.00;1.00;;;;;;4991840;28;20182;-87
2022/03/04 10:20:14;;;;;;;93.90;22.02;;;6.10;1.00;;;;;;4994255;28;20453;-87
2022/03/04 10:22:45;;;;;;;92.57;20.58;;;6.20;1.00;;;;;;4992100;28;20159;-87
2022/03/04 10:25:21;;;;;;;89.93;19.90;;;6.30;1.00;;;;;;4992370;28;20150;-87
2022/03/04 10:27:48;;;;;;;93.30;19.83;;;6.50;1.00;;;;;;4991650;28;20155;-87
2022/03/04 10:30:15;;;;;;;93.72;18.63;;;6.50;1.00;;;;;;4993165;28;20170;-87
2022/03/04 10:32:41;;;;;;;94.80;19.52;;;6.60;1.00;;;;;;4991435;28;20175;-87
2022/03/04 10:35:11;;;;;;;94.28;20.60;;;6.80;1.00;;;;;;4990700;28;20198;-87
2022/03/04 10:37:52;;;;;;;92.20;21.65;;;7.00;1.00;;;;;;4990246;28;20178;-87
2022/03/04 10:40:25;;;;;;;95.85;27.30;;;7.00;1.00;;;;;;4989374;28;20175;-87
2022/03/04 10:42:58;;;;;;;92.22;27.05;;;7.20;1.00;;;;;;4990585;28;20234;-87
2022/03/04 10:45:31;;;;;;;92.82;28.90;;;7.10;1.00;;;;;;4992452;28;20162;-87
2022/03/04 10:48:03;;;;;;;96.25;24.13;;;7.40;1.00;;;;;;4990102;28;20156;-86
2022/03/04 10:50:40;;;;;;;90.78;23.35;;;7.50;1.00;;;;;;4987950;28;20512;-87
2022/03/04 10:53:14;;;;;;;89.03;22.83;;;7.40;1.00;;;;;;4987060;28;20221;-86
2022/03/04 10:55:55;;;;;;;93.22;19.38;;;7.40;1.00;;;;;;4985788;28;20183;-87
2022/03/04 10:58:29;;;;;;;98.07;22.95;;;7.40;1.00;;;;;;4988504;28;20163;-87
2022/03/04 11:01:02;;;;;;;89.57;21.40;;;7.60;1.00;;;;;;4990411;28;20267;-87
2022/03/04 11:03:33;;;;;;;92.68;34.20;;;8.00;1.00;;;;;;4989141;28;20175;-87
2022/03/04 11:06:15;;;;;;;94.60;34.97;;;8.30;1.00;;;;;;5052276;23;20223;-87
2022/03/04 11:08:45;;;;;;;90.25;27.55;;;8.20;1.00;;;;;;4977410;28;20179;-87
2022/03/04 11:11:14;;;;;;;89.88;27.00;;;8.30;1.00;;;;;;4980544;28;20160;-87
2022/03/04 11:13:39;;;;;;;87.88;20.48;;;8.30;1.00;;;;;;4975958;28;20167;-87
2022/03/04 11:16:07;;;;;;;85.40;20.30;;;8.70;1.00;;;;;;4974455;28;20586;-87
2022/03/04 11:18:33;;;;;;;92.35;24.45;;;8.60;1.00;;;;;;4976462;28;20394;-87
2022/03/04 11:21:00;;;;;;;91.60;29.17;;;8.30;1.00;;;;;;4976470;28;20242;-87
2022/03/04 11:23:32;;;;;;;96.65;43.58;;;8.70;1.00;;;;;;4977389;28;20698;-87
2022/03/04 11:26:05;;;;;;;97.68;45.88;;;8.60;1.00;;;;;;4976122;28;20206;-87
2022/03/04 11:28:39;;;;;;;97.10;43.67;;;8.60;1.00;;;;;;4975505;28;20214;-87
2022/03/04 11:31:08;;;;;;;100.45;47.72;;;8.30;1.00;;;;;;4979417;28;20171;-87
2022/03/04 11:33:36;;;;;;;100.32;51.63;;;8.50;1.00;;;;;;4979758;28;20167;-87
2022/03/04 11:36:22;;;;;;;95.55;42.97;;;8.70;1.00;;;;;;4980057;28;20187;-87
2022/03/04 11:38:50;;;;;;;95.88;31.02;;;9.30;1.00;;;;;;4979674;28;20642;-87
2022/03/04 11:41:34;;;;;;;98.45;50.50;;;9.60;1.00;;;;;;4980952;28;20257;-87
2022/03/04 11:44:19;;;;;;;103.72;58.33;;;9.70;1.00;;;;;;4983756;28;20155;-87
2022/03/04 11:47:02;;;;;;;103.00;54.30;;;10.00;1.00;;;;;;4979785;28;20174;-87
2022/03/04 11:49:43;;;;;;;105.22;50.25;;;10.10;1.00;;;;;;4978632;28;20167;-87
2022/03/04 11:52:09;;;;;;;95.93;39.97;;;9.60;1.00;;;;;;4981014;28;20191;-87
2022/03/04 11:54:45;;;;;;;92.37;38.50;;;9.40;1.00;;;;;;4980212;28;20575;-84
2022/03/04 11:57:34;;;;;;;93.32;34.90;;;9.40;1.00;;;;;;4978318;28;20186;-84
2022/03/04 12:00:10;;;;;;;94.43;33.00;;;9.40;1.00;;;;;;4980081;28;20214;-85
2022/03/04 12:02:47;;;;;;;95.20;32.65;;;9.50;1.00;;;;;;4977073;28;20177;-84
2022/03/04 12:05:19;;;;;;;94.70;35.80;;;9.40;1.00;;;;;;4981680;28;20568;-85
2022/03/04 12:07:45;;;;;;;87.22;31.95;;;9.30;1.00;;;;;;4979962;28;20539;-84
2022/03/04 12:10:16;;;;;;;91.13;25.27;;;9.50;1.00;;;;;;4982530;28;20571;-84
2022/03/04 12:13:21;;;;;;;93.57;27.08;;;9.60;1.00;;;;;;4984408;28;20159;-84
2022/03/04 12:15:52;;;;;;;91.78;37.38;;;9.60;1.00;;;;;;4981942;28;20265;-84
2022/03/04 12:18:28;;;;;;;93.75;30.38;;;9.40;1.00;;;;;;4978532;28;20210;-85
2022/03/04 12:21:00;;;;;;;99.38;51.28;;;9.40;1.00;;;;;;4978468;28;20587;-84
2022/03/04 12:23:36;;;;;;;93.20;40.45;;;9.50;1.00;;;;;;4978973;28;20527;-85
2022/03/04 12:26:05;;;;;;;101.03;48.45;;;9.50;1.00;;;;;;4977646;28;20187;-84
2022/03/04 12:29:05;;;;;;;100.63;57.90;;;9.40;1.00;;;;;;4976475;28;20168;-84
2022/03/04 12:31:38;;;;;;;94.50;44.45;;;9.50;1.00;;;;;;4978042;28;20160;-85
2022/03/04 12:34:04;;;;;;;97.40;52.17;;;9.60;1.00;;;;;;4976886;28;20163;-85
2022/03/04 12:36:30;;;;;;;91.90;36.28;;;9.70;1.00;;;;;;4977952;28;20187;-85
2022/03/04 12:39:02;;;;;;;89.10;35.20;;;9.80;1.00;;;;;;4978392;28;20627;-84
2022/03/04 12:41:34;;;;;;;90.72;28.83;;;9.90;1.00;;;;;;4976308;28;20297;-85
2022/03/04 12:44:01;;;;;;;99.47;53.92;;;10.10;1.00;;;;;;4978677;28;20167;-85